Time;durP1;ratioP1;P1;durP2;ratioP2;P2;SDS_P1;SDS_P2;PMS_P1;PMS_P2;Temp;Humidity;BMP_temperature;BMP_pressure;BME280_temperature;BME280_humidity;BME280_pressure;Samples;Min_cycle;Max_cycle;Signal;HPM_P1;HPM_P2
2021/04/04 00:01:13;;;;;;;13.67;6.70;;;-0.20;99.90;;;;;;5166284;28;20219;-71
2021/04/04 00:03:45;;;;;;;11.17;6.57;;;-0.20;99.90;;;;;;5169254;28;20203;-70
2021/04/04 00:06:16;;;;;;;12.87;6.70;;;-0.30;99.90;;;;;;5170004;28;20196;-68
2021/04/04 00:08:48;;;;;;;15.57;6.97;;;-0.30;99.90;;;;;;5169684;28;20237;-68
2021/04/04 00:11:19;;;;;;;14.40;6.83;;;-0.30;99.90;;;;;;5169288;28;20192;-70
2021/04/04 00:13:51;;;;;;;15.83;7.23;;;-0.20;99.90;;;;;;5169894;28;20206;-69
2021/04/04 00:16:22;;;;;;;15.17;7.27;;;-0.30;99.90;;;;;;5171743;28;20199;-69
2021/04/04 00:18:53;;;;;;;16.97;7.07;;;-0.20;99.90;;;;;;5169082;28;20192;-70
2021/04/04 00:21:25;;;;;;;11.93;6.53;;;-0.30;99.90;;;;;;5169449;28;20282;-70
2021/04/04 00:23:56;;;;;;;15.03;6.33;;;-0.30;99.90;;;;;;5168835;28;20187;-71
2021/04/04 00:26:28;;;;;;;15.87;6.33;;;-0.20;99.90;;;;;;5169104;28;20635;-67
2021/04/04 00:29:00;;;;;;;11.87;5.30;;;-0.20;99.90;;;;;;5169525;28;20211;-70
2021/04/04 00:31:32;;;;;;;13.60;5.40;;;-0.20;99.90;;;;;;5169785;28;20195;-70
2021/04/04 00:34:04;;;;;;;10.77;5.37;;;-0.30;99.90;;;;;;5168834;28;20196;-71
2021/04/04 00:36:36;;;;;;;11.27;5.60;;;-0.20;99.90;;;;;;5168635;28;20196;-70
2021/04/04 00:39:11;;;;;;;12.93;5.03;;;-0.30;99.90;;;;;;5168981;28;20310;-70
2021/04/04 00:41:45;;;;;;;13.50;5.40;;;-0.30;99.90;;;;;;5168781;28;20196;-71
2021/04/04 00:44:16;;;;;;;12.80;5.60;;;-0.30;99.90;;;;;;5168910;28;20553;-71
2021/04/04 00:46:48;;;;;;;12.90;5.33;;;-0.40;99.90;;;;;;5170407;28;20215;-71
2021/04/04 00:49:19;;;;;;;14.00;5.30;;;-0.40;99.90;;;;;;5172195;28;20239;-69
2021/04/04 00:51:52;;;;;;;11.17;5.30;;;-0.40;99.90;;;;;;5170157;28;20192;-71
2021/04/04 00:54:24;;;;;;;15.67;5.10;;;-0.40;99.90;;;;;;5170217;28;20230;-70
2021/04/04 00:56:56;;;;;;;11.10;4.67;;;-0.50;99.90;;;;;;5169541;28;20202;-71
2021/04/04 00:59:27;;;;;;;11.33;4.23;;;-0.50;99.90;;;;;;5168823;28;20208;-71
2021/04/04 01:01:58;;;;;;;10.70;4.37;;;-0.50;99.90;;;;;;5168312;28;20200;-68
2021/04/04 01:04:30;;;;;;;11.50;4.07;;;-0.50;99.90;;;;;;5168507;28;20192;-71
2021/04/04 01:07:01;;;;;;;7.20;3.77;;;-0.50;99.90;;;;;;5168480;28;20565;-71
2021/04/04 01:09:33;;;;;;;9.33;3.30;;;-0.50;99.90;;;;;;5167266;28;20204;-70
2021/04/04 01:12:25;;;;;;;10.60;4.30;;;-0.50;99.90;;;;;;5168873;28;20560;-70
2021/04/04 01:15:05;;;;;;;11.17;3.60;;;-0.50;99.90;;;;;;5168256;28;20196;-69
2021/04/04 01:17:38;;;;;;;8.67;3.80;;;-0.50;99.90;;;;;;5168011;28;20558;-71
2021/04/04 01:20:17;;;;;;;9.20;3.60;;;-0.60;99.90;;;;;;5168158;28;20200;-70
2021/04/04 01:22:55;;;;;;;9.13;4.17;;;-0.60;99.90;;;;;;5168417;28;20631;-70
2021/04/04 01:25:38;;;;;;;6.63;3.57;;;-0.60;99.90;;;;;;5167818;28;20271;-69
2021/04/04 01:28:19;;;;;;;11.53;3.63;;;-0.60;99.90;;;;;;5168171;28;20227;-70
2021/04/04 01:30:52;;;;;;;6.80;3.63;;;-0.60;99.90;;;;;;5167826;28;20195;-69
2021/04/04 01:33:25;;;;;;;9.60;3.90;;;-0.60;99.90;;;;;;5167809;28;20286;-69
2021/04/04 01:39:48;;;;;;;8.53;4.00;;;-0.60;99.90;;;;;;5166973;28;20310;-71
2021/04/04 01:42:21;;;;;;;7.50;3.47;;;-0.60;99.90;;;;;;5168394;28;20275;-69
2021/04/04 01:44:54;;;;;;;10.43;3.97;;;-0.60;99.90;;;;;;5167790;28;20200;-70
2021/04/04 01:47:25;;;;;;;8.33;3.97;;;-0.70;99.90;;;;;;5167835;28;20745;-69
2021/04/04 01:49:57;;;;;;;10.07;3.77;;;-0.60;99.90;;;;;;5167451;28;20196;-70
2021/04/04 01:56:15;;;;;;;6.53;3.43;;;-0.70;99.90;;;;;;5167523;28;20662;-69
2021/04/04 01:58:47;;;;;;;11.30;3.80;;;-0.70;99.90;;;;;;5167412;28;20203;-72
2021/04/04 02:01:20;;;;;;;7.70;3.87;;;-0.70;99.90;;;;;;5167539;28;20221;-72
2021/04/04 02:03:52;;;;;;;7.07;4.33;;;-0.70;99.90;;;;;;5167524;28;20286;-71
2021/04/04 02:06:25;;;;;;;9.87;4.33;;;-0.70;99.90;;;;;;5167081;28;20203;-69
2021/04/04 02:08:57;;;;;;;8.63;3.97;;;-0.70;99.90;;;;;;5167501;28;20585;-69
2021/04/04 02:11:31;;;;;;;9.50;4.77;;;-0.70;99.90;;;;;;5167642;28;20275;-69
2021/04/04 02:14:08;;;;;;;9.97;5.30;;;-0.70;99.90;;;;;;5170601;28;20639;-72
2021/04/04 02:16:46;;;;;;;9.73;4.17;;;-0.70;99.90;;;;;;5167127;28;20666;-71
2021/04/04 02:19:20;;;;;;;10.37;4.20;;;-0.70;99.90;;;;;;5150107;28;20593;-70
2021/04/04 02:21:56;;;;;;;11.57;4.63;;;-0.80;99.90;;;;;;5167110;28;20205;-69
2021/04/04 02:24:30;;;;;;;8.83;4.73;;;-0.80;99.90;;;;;;5167073;28;20199;-70
2021/04/04 02:27:03;;;;;;;9.53;4.23;;;-0.80;99.90;;;;;;5166328;28;20258;-69
2021/04/04 02:29:35;;;;;;;6.83;4.20;;;-0.80;99.90;;;;;;5167103;28;20210;-71
2021/04/04 02:32:09;;;;;;;10.73;4.77;;;-0.80;99.90;;;;;;5166247;28;20593;-70
2021/04/04 02:34:42;;;;;;;8.90;4.93;;;-0.90;99.90;;;;;;5166732;28;20195;-68
2021/04/04 02:37:15;;;;;;;10.60;5.03;;;-0.90;99.90;;;;;;5166531;28;20195;-69
2021/04/04 02:39:54;;;;;;;10.20;5.27;;;-0.90;99.90;;;;;;5166688;28;20258;-70
2021/04/04 02:42:27;;;;;;;10.87;5.37;;;-0.90;99.90;;;;;;5166900;28;20199;-68
2021/04/04 02:45:00;;;;;;;12.43;5.40;;;-0.90;99.90;;;;;;5166429;28;20203;-69
2021/04/04 02:47:47;;;;;;;13.57;6.60;;;-0.90;99.90;;;;;;5166722;28;20229;-72
2021/04/04 02:50:19;;;;;;;16.50;6.13;;;-0.90;99.90;;;;;;5166471;28;20195;-69
2021/04/04 02:52:53;;;;;;;14.40;6.57;;;-0.90;99.90;;;;;;5166738;28;20206;-69
2021/04/04 02:55:28;;;;;;;13.13;6.67;;;-0.90;99.90;;;;;;5166651;28;20286;-69
2021/04/04 02:58:03;;;;;;;11.90;7.23;;;-0.90;99.90;;;;;;5166296;28;20198;-70
2021/04/04 03:00:38;;;;;;;12.77;6.07;;;-0.90;99.90;;;;;;5166773;28;20555;-70
2021/04/04 03:03:11;;;;;;;13.93;7.20;;;-0.90;99.90;;;;;;5166825;28;20634;-68
2021/04/04 03:05:44;;;;;;;14.30;6.93;;;-0.90;99.90;;;;;;5166298;28;20198;-69
2021/04/04 03:08:17;;;;;;;13.53;7.53;;;-0.90;99.90;;;;;;5166184;28;20317;-70
2021/04/04 03:10:51;;;;;;;16.53;8.37;;;-0.90;99.90;;;;;;5168332;28;20664;-73
2021/04/04 03:13:23;;;;;;;13.60;7.63;;;-0.90;99.90;;;;;;5167627;28;20207;-70
2021/04/04 03:15:56;;;;;;;15.00;7.27;;;-0.90;99.90;;;;;;5166446;28;20200;-70
2021/04/04 03:18:29;;;;;;;12.87;7.63;;;-0.90;99.90;;;;;;5166186;28;20279;-70
2021/04/04 03:24:48;;;;;;;13.23;7.10;;;-0.80;99.90;;;;;;5166179;28;20478;-70
2021/04/04 03:27:21;;;;;;;14.77;7.37;;;-0.80;99.90;;;;;;5166273;28;20219;-70
2021/04/04 03:29:53;;;;;;;13.63;7.03;;;-0.80;99.90;;;;;;5166595;28;20267;-71
2021/04/04 03:32:26;;;;;;;12.80;6.80;;;-0.80;99.90;;;;;;5166466;28;20294;-71
2021/04/04 03:34:57;;;;;;;14.00;6.97;;;-0.80;99.90;;;;;;5166455;28;20718;-68
2021/04/04 03:41:15;;;;;;;12.17;6.47;;;-0.80;99.90;;;;;;5169102;28;20226;-69
2021/04/04 03:43:49;;;;;;;16.50;7.37;;;-0.80;99.90;;;;;;5170281;28;20639;-68
2021/04/04 03:46:25;;;;;;;15.93;7.13;;;-0.90;99.90;;;;;;5170311;28;20553;-70
2021/04/04 03:48:58;;;;;;;11.83;6.57;;;-0.80;99.90;;;;;;5152975;28;20223;-70
2021/04/04 03:51:31;;;;;;;14.70;6.50;;;-0.90;99.90;;;;;;5169824;28;20192;-69
2021/04/04 03:54:03;;;;;;;15.03;7.50;;;-0.80;99.90;;;;;;5173045;28;20203;-73
2021/04/04 03:56:36;;;;;;;12.97;7.10;;;-0.80;99.90;;;;;;5174047;28;20199;-70
2021/04/04 03:59:10;;;;;;;13.50;6.90;;;-0.90;99.90;;;;;;5171863;28;20210;-69
2021/04/04 04:01:47;;;;;;;15.13;7.10;;;-0.90;99.90;;;;;;5170414;28;20226;-69
2021/04/04 04:04:20;;;;;;;13.33;7.03;;;-0.80;99.90;;;;;;5169722;28;20195;-71
2021/04/04 04:06:53;;;;;;;14.50;6.80;;;-0.90;99.90;;;;;;5172391;28;20298;-69
2021/04/04 04:09:25;;;;;;;10.77;5.77;;;-0.90;99.90;;;;;;5174507;28;20206;-71
2021/04/04 04:12:00;;;;;;;12.83;6.33;;;-0.80;99.90;;;;;;5173181;28;20196;-69
2021/04/04 04:14:33;;;;;;;11.87;5.53;;;-0.90;99.90;;;;;;5172917;28;20207;-68
2021/04/04 04:17:06;;;;;;;14.07;6.13;;;-0.90;99.90;;;;;;5171900;28;20188;-69
2021/04/04 04:19:37;;;;;;;12.73;6.10;;;-0.90;99.90;;;;;;5171234;28;20199;-70
2021/04/04 04:22:09;;;;;;;10.90;5.57;;;-0.90;99.90;;;;;;5171513;28;20286;-71
2021/04/04 04:24:41;;;;;;;10.70;5.20;;;-0.90;99.90;;;;;;5173386;28;20196;-69
2021/04/04 04:27:13;;;;;;;12.83;5.97;;;-0.90;99.90;;;;;;5173365;28;20220;-69
2021/04/04 04:29:50;;;;;;;10.43;5.63;;;-0.90;99.90;;;;;;5172760;28;20198;-68
2021/04/04 04:32:24;;;;;;;11.30;4.80;;;-0.90;99.90;;;;;;5169530;28;20242;-70
2021/04/04 04:34:56;;;;;;;11.10;5.10;;;-0.80;99.90;;;;;;5169578;28;20219;-69
2021/04/04 04:37:32;;;;;;;8.40;4.33;;;-0.80;99.90;;;;;;5169113;28;20199;-69
2021/04/04 04:40:06;;;;;;;10.50;4.93;;;-0.70;99.90;;;;;;5169129;28;20237;-68
2021/04/04 04:42:42;;;;;;;9.60;4.70;;;-0.70;99.90;;;;;;5169107;28;20209;-69
2021/04/04 04:45:24;;;;;;;8.63;4.40;;;-0.70;99.90;;;;;;5169291;28;20506;-68
2021/04/04 04:47:56;;;;;;;8.63;4.27;;;-0.70;99.90;;;;;;5168781;28;20219;-68
2021/04/04 04:50:28;;;;;;;6.13;3.63;;;-0.60;99.90;;;;;;5168242;28;20199;-69
2021/04/04 04:53:00;;;;;;;8.23;4.30;;;-0.50;99.90;;;;;;5168843;28;20187;-69
2021/04/04 04:55:33;;;;;;;7.13;4.67;;;-0.50;99.90;;;;;;5168931;28;20607;-68
2021/04/04 04:58:05;;;;;;;10.00;4.00;;;-0.50;99.90;;;;;;5168780;28;20199;-69
2021/04/04 05:00:39;;;;;;;6.43;3.43;;;-0.40;99.90;;;;;;5169017;28;20199;-70
2021/04/04 05:03:11;;;;;;;7.23;3.73;;;-0.40;99.90;;;;;;5168627;28;20200;-68
2021/04/04 05:05:43;;;;;;;8.47;3.93;;;-0.30;99.90;;;;;;5168857;28;20196;-67
2021/04/04 05:08:15;;;;;;;6.10;3.10;;;-0.20;99.90;;;;;;5169620;28;20219;-68
2021/04/04 05:10:48;;;;;;;8.47;3.50;;;-0.20;99.90;;;;;;5170033;28;20238;-67
2021/04/04 05:13:20;;;;;;;6.23;3.20;;;-0.10;99.90;;;;;;5168845;28;20196;-68
2021/04/04 05:15:53;;;;;;;5.03;2.73;;;0.00;99.90;;;;;;5168159;28;20203;-70
2021/04/04 05:18:24;;;;;;;7.37;3.53;;;0.00;99.90;;;;;;5168087;28;20199;-70
2021/04/04 05:20:56;;;;;;;5.80;3.30;;;0.10;99.90;;;;;;5168646;28;20195;-69
2021/04/04 05:23:27;;;;;;;5.83;3.17;;;0.20;99.90;;;;;;5168333;28;20204;-69
2021/04/04 05:25:59;;;;;;;6.60;3.43;;;0.30;99.90;;;;;;5168306;28;20210;-72
2021/04/04 05:28:34;;;;;;;5.20;2.90;;;0.30;99.90;;;;;;5167979;28;20231;-71
2021/04/04 05:31:06;;;;;;;9.13;3.50;;;0.40;99.90;;;;;;5168341;28;20274;-69
2021/04/04 05:33:39;;;;;;;8.13;3.80;;;0.50;99.90;;;;;;5168279;28;20559;-69
2021/04/04 05:36:10;;;;;;;6.80;3.23;;;0.60;99.90;;;;;;5168051;28;20196;-71
2021/04/04 05:38:42;;;;;;;6.83;3.30;;;0.70;99.90;;;;;;5167947;28;20206;-69
2021/04/04 05:41:16;;;;;;;7.57;3.23;;;0.80;99.90;;;;;;5167776;28;20234;-69
2021/04/04 05:43:59;;;;;;;6.80;3.70;;;0.80;99.90;;;;;;5167635;28;20212;-69
2021/04/04 05:46:37;;;;;;;8.00;3.47;;;1.00;99.90;;;;;;5151071;28;20214;-69
2021/04/04 05:49:50;;;;;;;8.70;3.60;;;1.10;99.90;;;;;;5167617;28;20226;-67
2021/04/04 05:56:25;;;;;;;6.23;3.40;;;1.40;99.90;;;;;;5167405;28;20263;-67
2021/04/04 05:59:06;;;;;;;7.57;3.50;;;1.70;99.90;;;;;;5167545;28;20598;-68
2021/04/04 06:01:59;;;;;;;6.10;3.30;;;2.00;99.90;;;;;;5167176;28;20196;-69
2021/04/04 06:05:03;;;;;;;7.77;4.00;;;2.30;99.90;;;;;;5167168;28;20192;-67
2021/04/04 06:07:50;;;;;;;5.73;3.23;;;2.60;99.90;;;;;;5168109;28;20234;-72
2021/04/04 06:10:43;;;;;;;6.73;3.33;;;2.90;99.90;;;;;;5167495;28;20195;-68
2021/04/04 06:13:35;;;;;;;8.07;2.90;;;3.10;99.90;;;;;;5167102;28;20203;-67
2021/04/04 06:16:29;;;;;;;7.33;3.13;;;3.30;99.90;;;;;;5167244;28;20553;-68
2021/04/04 06:19:16;;;;;;;6.13;3.20;;;3.40;99.90;;;;;;5167428;28;20541;-69
2021/04/04 06:25:47;;;;;;;7.60;2.67;;;3.50;99.90;;;;;;5167030;28;20230;-70
2021/04/04 06:28:48;;;;;;;8.23;2.70;;;3.50;99.90;;;;;;5167689;28;20681;-70
2021/04/04 06:31:48;;;;;;;7.80;2.67;;;3.60;99.90;;;;;;5166568;28;20202;-72
2021/04/04 06:34:44;;;;;;;5.30;3.00;;;3.60;99.90;;;;;;5167288;28;20200;-69
2021/04/04 06:37:33;;;;;;;6.13;2.80;;;3.50;99.90;;;;;;5166966;28;20532;-71
2021/04/04 06:40:22;;;;;;;8.10;3.03;;;3.90;99.90;;;;;;5166809;28;20605;-67
2021/04/04 06:43:07;;;;;;;7.13;3.20;;;4.90;99.90;;;;;;5167051;28;20215;-76
2021/04/04 06:46:13;;;;;;;6.13;3.03;;;6.90;99.90;;;;;;5166826;28;20188;-70
2021/04/04 06:49:15;;;;;;;6.17;2.90;;;8.90;99.90;;;;;;5166517;28;20227;-73
2021/04/04 06:56:06;;;;;;;4.67;2.30;;;12.90;99.90;;;;;;5144249;28;20282;-72
2021/04/04 06:59:16;;;;;;;6.50;3.07;;;14.40;99.90;;;;;;5144176;28;20204;-70
2021/04/04 07:01:59;;;;;;;7.10;2.67;;;15.50;96.50;;;;;;5144845;28;20219;-71
2021/04/04 07:04:45;;;;;;;4.40;2.80;;;15.90;93.60;;;;;;5145233;28;20208;-73
2021/04/04 07:11:18;;;;;;;8.13;3.78;;;16.80;90.10;;;;;;5144414;28;20185;-71
2021/04/04 07:14:10;;;;;;;7.10;3.80;;;17.10;87.00;;;;;;5147738;28;20192;-67
2021/04/04 07:17:24;;;;;;;6.90;2.88;;;17.70;84.50;;;;;;5148038;28;20214;-68
2021/04/04 07:20:14;;;;;;;6.63;2.20;;;17.50;79.10;;;;;;5147898;28;20598;-71
2021/04/04 07:23:28;;;;;;;4.75;2.05;;;16.90;79.50;;;;;;5147923;28;20200;-69
2021/04/04 07:26:18;;;;;;;5.85;1.95;;;16.60;80.40;;;;;;5145714;28;20213;-71
2021/04/04 07:29:12;;;;;;;5.22;2.17;;;16.50;80.90;;;;;;5169922;28;20223;-74
2021/04/04 07:31:51;;;;;;;4.28;2.03;;;17.10;78.80;;;;;;5169829;28;20203;-73
2021/04/04 07:34:32;;;;;;;6.50;2.30;;;16.50;77.90;;;;;;5169859;28;20199;-71
2021/04/04 07:41:11;;;;;;;3.63;2.28;;;15.90;80.80;;;;;;5135036;28;20323;-71
2021/04/04 07:43:50;;;;;;;3.95;1.95;;;15.90;79.40;;;;;;5111215;29;20208;-70
2021/04/04 07:46:56;;;;;;;5.47;2.25;;;16.00;79.40;;;;;;5127165;29;20197;-70
2021/04/04 07:49:50;;;;;;;5.25;2.38;;;15.40;79.30;;;;;;5029332;29;20236;-69
2021/04/04 07:52:59;;;;;;;5.27;2.20;;;14.30;81.20;;;;;;5029709;29;20291;-71
2021/04/04 07:55:47;;;;;;;4.53;2.40;;;13.20;83.60;;;;;;5029442;29;20661;-70
2021/04/04 07:58:25;;;;;;;7.23;2.70;;;12.50;87.60;;;;;;5029439;29;20668;-69
2021/04/04 08:01:01;;;;;;;4.07;2.10;;;11.90;89.90;;;;;;5029302;29;20204;-70
2021/04/04 08:03:55;;;;;;;4.10;2.23;;;11.30;90.30;;;;;;5029667;29;20292;-70
2021/04/04 08:06:34;;;;;;;3.33;1.90;;;10.70;91.80;;;;;;5029183;29;20536;-71
2021/04/04 08:09:40;;;;;;;5.67;2.60;;;10.30;92.30;;;;;;5029694;29;20315;-71
2021/04/04 08:12:47;;;;;;;6.20;2.27;;;10.10;92.90;;;;;;5023273;29;20223;-69
2021/04/04 08:15:24;;;;;;;4.90;2.00;;;9.90;93.40;;;;;;5030513;29;20207;-69
2021/04/04 08:17:55;;;;;;;4.13;1.93;;;9.70;93.90;;;;;;5028039;29;20219;-69
2021/04/04 08:20:33;;;;;;;4.87;1.80;;;9.70;93.90;;;;;;5029207;29;20231;-70
2021/04/04 08:27:01;;;;;;;3.57;1.50;;;9.40;94.20;;;;;;5117160;28;20188;-69
2021/04/04 08:29:46;;;;;;;4.83;1.30;;;9.20;93.00;;;;;;5133210;28;20239;-70
2021/04/04 08:32:36;;;;;;;5.57;1.90;;;9.00;93.00;;;;;;5153237;28;20224;-69
2021/04/04 08:35:08;;;;;;;6.60;1.70;;;9.10;94.10;;;;;;5153671;28;20622;-72
2021/04/04 08:41:37;;;;;;;5.83;1.60;;;9.10;94.70;;;;;;5171064;28;20653;-68
2021/04/04 08:44:16;;;;;;;5.20;1.90;;;9.10;95.00;;;;;;5174110;28;20665;-70
2021/04/04 08:46:58;;;;;;;7.10;2.60;;;9.30;95.30;;;;;;5172321;28;20192;-67
2021/04/04 08:49:29;;;;;;;6.80;2.07;;;9.40;95.30;;;;;;5170611;28;20230;-68
2021/04/04 08:52:07;;;;;;;5.93;1.97;;;9.50;95.30;;;;;;5171471;28;20546;-68
2021/04/04 08:54:41;;;;;;;8.30;2.67;;;9.60;95.00;;;;;;5169150;28;20202;-68
2021/04/04 08:57:13;;;;;;;4.57;1.90;;;9.60;94.30;;;;;;5170534;28;20533;-67
2021/04/04 08:59:47;;;;;;;4.20;1.63;;;9.50;95.00;;;;;;5170725;28;20283;-69
2021/04/04 09:02:19;;;;;;;4.27;2.10;;;9.40;94.40;;;;;;5169934;28;20202;-66
2021/04/04 09:04:50;;;;;;;4.27;2.13;;;9.40;94.90;;;;;;5169396;28;20199;-67
2021/04/04 09:07:22;;;;;;;3.77;1.50;;;9.50;94.50;;;;;;5168371;28;20204;-66
2021/04/04 09:09:54;;;;;;;2.47;1.33;;;9.50;94.10;;;;;;5066689;29;20211;-68
2021/04/04 09:12:32;;;;;;;5.03;2.00;;;9.50;94.10;;;;;;5067006;29;20674;-69
2021/04/04 09:15:06;;;;;;;4.63;1.80;;;9.60;94.20;;;;;;5066377;29;20210;-67
2021/04/04 09:17:48;;;;;;;5.90;1.93;;;9.50;93.90;;;;;;5066543;29;20745;-67
2021/04/04 09:20:34;;;;;;;4.73;2.03;;;9.50;94.10;;;;;;5065659;29;20195;-64
2021/04/04 09:27:02;;;;;;;4.93;1.47;;;9.40;94.60;;;;;;5077493;28;20624;-67
2021/04/04 09:29:35;;;;;;;5.83;1.50;;;9.50;94.50;;;;;;5150114;28;20556;-64
2021/04/04 09:32:13;;;;;;;5.90;1.97;;;9.60;94.20;;;;;;5167566;28;20632;-67
2021/04/04 09:34:46;;;;;;;4.67;1.90;;;9.50;94.30;;;;;;5167771;28;20303;-68
2021/04/04 09:37:22;;;;;;;6.30;2.03;;;9.50;94.00;;;;;;5167732;28;20554;-68
2021/04/04 09:44:35;;;;;;;2.20;1.50;;;9.30;94.50;;;;;;5147648;28;20212;-67
2021/04/04 09:47:07;;;;;;;6.13;1.33;;;9.10;93.40;;;;;;5130442;28;20196;-67
2021/04/04 09:49:48;;;;;;;4.93;1.40;;;9.00;93.70;;;;;;5146849;28;20220;-69
2021/04/04 09:52:24;;;;;;;3.20;1.27;;;8.80;93.50;;;;;;5146828;28;20287;-69
2021/04/04 09:58:51;;;;;;;2.93;1.13;;;9.10;93.70;;;;;;5147490;28;20218;-68
2021/04/04 10:01:31;;;;;;;3.70;1.53;;;9.10;92.90;;;;;;5147515;28;20192;-68
2021/04/04 10:04:07;;;;;;;4.40;1.40;;;8.90;93.20;;;;;;5146974;28;20219;-70
2021/04/04 10:06:38;;;;;;;3.17;1.20;;;8.90;93.30;;;;;;5146267;28;20280;-68
2021/04/04 10:09:13;;;;;;;2.90;0.90;;;9.10;93.90;;;;;;5146678;28;20228;-66
2021/04/04 10:11:44;;;;;;;2.70;1.30;;;9.20;93.00;;;;;;5145811;28;20191;-67
2021/04/04 10:14:16;;;;;;;2.47;1.07;;;9.40;93.20;;;;;;5118911;28;20556;-73
2021/04/04 10:17:08;;;;;;;2.97;1.73;;;9.60;93.20;;;;;;5140871;28;20197;-69
2021/04/04 10:19:56;;;;;;;4.00;1.50;;;9.90;92.90;;;;;;5145398;28;20302;-72
2021/04/04 10:26:24;;;;;;;5.40;1.40;;;10.00;91.50;;;;;;5082216;29;20253;-70
2021/04/04 10:29:03;;;;;;;3.10;1.40;;;9.70;91.00;;;;;;5083416;29;20237;-68
2021/04/04 10:31:46;;;;;;;6.20;1.70;;;9.30;91.90;;;;;;5084269;29;20201;-72
2021/04/04 10:34:18;;;;;;;6.03;1.30;;;9.00;92.70;;;;;;5084976;29;20218;-70
2021/04/04 10:37:01;;;;;;;3.93;1.27;;;8.90;92.10;;;;;;5084810;29;20214;-69
2021/04/04 10:43:40;;;;;;;4.70;1.57;;;8.60;92.90;;;;;;5097820;29;20279;-71
2021/04/04 10:46:16;;;;;;;3.37;1.30;;;8.60;92.70;;;;;;5103575;29;20388;-71
2021/04/04 10:48:48;;;;;;;2.63;1.10;;;8.50;92.10;;;;;;5089014;29;20638;-69
2021/04/04 10:51:20;;;;;;;3.20;1.40;;;8.60;92.30;;;;;;5088682;29;20209;-72
2021/04/04 10:53:52;;;;;;;3.23;1.70;;;8.70;92.30;;;;;;5104365;29;20201;-67
2021/04/04 10:56:24;;;;;;;3.20;1.40;;;9.00;92.50;;;;;;5138305;28;20216;-67
2021/04/04 10:58:56;;;;;;;4.10;1.27;;;9.00;92.50;;;;;;5148881;28;20199;-68
2021/04/04 11:01:31;;;;;;;2.27;1.00;;;9.20;92.60;;;;;;5166474;28;20200;-69
2021/04/04 11:04:04;;;;;;;2.70;1.10;;;9.30;91.50;;;;;;5166333;28;20199;-68
2021/04/04 11:06:36;;;;;;;2.67;1.00;;;9.30;91.00;;;;;;5148708;28;20211;-71
2021/04/04 11:09:08;;;;;;;2.87;1.27;;;9.30;91.00;;;;;;5165793;28;20219;-67
2021/04/04 11:11:41;;;;;;;2.60;1.37;;;9.20;90.80;;;;;;5149064;28;20266;-66
2021/04/04 11:14:13;;;;;;;2.63;1.00;;;9.20;91.10;;;;;;5166152;28;20200;-70
2021/04/04 11:16:47;;;;;;;2.77;1.03;;;9.20;91.60;;;;;;5148984;28;20556;-67
2021/04/04 11:19:21;;;;;;;1.60;0.90;;;9.30;91.20;;;;;;5166045;28;20214;-67
2021/04/04 11:21:55;;;;;;;1.10;0.63;;;9.30;90.70;;;;;;5149403;28;20200;-68
2021/04/04 11:24:26;;;;;;;3.77;1.03;;;9.20;90.60;;;;;;5166443;28;20195;-66
2021/04/04 11:26:59;;;;;;;2.57;1.30;;;9.30;90.30;;;;;;5166173;28;20200;-67
2021/04/04 11:29:43;;;;;;;2.43;0.93;;;9.20;90.60;;;;;;5166251;28;20220;-69
2021/04/04 11:32:17;;;;;;;2.03;1.07;;;9.20;91.10;;;;;;5165860;28;20215;-69
2021/04/04 11:35:00;;;;;;;5.63;1.60;;;9.10;91.00;;;;;;5166363;28;20662;-68
2021/04/04 11:37:32;;;;;;;3.10;1.23;;;9.20;90.60;;;;;;5149051;28;20196;-70
2021/04/04 11:40:15;;;;;;;2.13;1.10;;;9.30;90.20;;;;;;5166142;28;20200;-67
2021/04/04 11:43:07;;;;;;;2.13;0.80;;;9.40;90.30;;;;;;5165514;28;20725;-67
2021/04/04 11:45:44;;;;;;;1.90;0.80;;;9.60;90.10;;;;;;5166088;28;20199;-71
2021/04/04 11:48:36;;;;;;;2.30;1.00;;;9.80;89.80;;;;;;5148534;28;20230;-70
2021/04/04 11:51:11;;;;;;;2.83;0.80;;;10.00;88.00;;;;;;5166006;28;20636;-70
2021/04/04 11:57:34;;;;;;;3.10;1.00;;;10.10;88.20;;;;;;5166483;28;20172;-68
2021/04/04 12:00:12;;;;;;;3.47;0.90;;;9.90;88.70;;;;;;5169977;28;20279;-67
2021/04/04 12:02:58;;;;;;;1.93;0.90;;;10.10;88.00;;;;;;5168252;28;20622;-67
2021/04/04 12:05:39;;;;;;;3.20;0.70;;;10.20;86.70;;;;;;5164387;28;20198;-72
2021/04/04 12:08:11;;;;;;;2.57;0.80;;;10.20;85.80;;;;;;5164192;28;20631;-72
2021/04/04 12:10:43;;;;;;;1.60;0.70;;;10.30;85.90;;;;;;5165301;28;20196;-70
2021/04/04 12:13:16;;;;;;;2.27;1.10;;;10.30;83.70;;;;;;5164530;28;20608;-68
2021/04/04 12:15:48;;;;;;;1.73;1.00;;;10.20;84.30;;;;;;5164653;28;20655;-74
2021/04/04 12:18:19;;;;;;;2.23;0.90;;;10.20;84.60;;;;;;5165220;28;20788;-70
2021/04/04 12:20:51;;;;;;;2.23;0.90;;;10.00;84.70;;;;;;5165435;28;20551;-70
2021/04/04 12:23:22;;;;;;;1.27;0.67;;;9.90;85.40;;;;;;5164994;28;20609;-70
2021/04/04 12:25:54;;;;;;;3.40;0.93;;;9.80;84.70;;;;;;5165925;28;20255;-70
2021/04/04 12:28:26;;;;;;;1.50;0.80;;;10.00;84.60;;;;;;5165706;28;20219;-71
2021/04/04 12:30:58;;;;;;;2.87;1.00;;;10.00;84.00;;;;;;5166376;28;20233;-71
2021/04/04 12:33:38;;;;;;;2.53;0.93;;;10.10;84.30;;;;;;5166768;28;20192;-71
2021/04/04 12:36:09;;;;;;;1.93;0.60;;;10.00;84.60;;;;;;5167891;28;20600;-70
2021/04/04 12:38:41;;;;;;;3.27;0.80;;;10.00;84.70;;;;;;5167932;28;20196;-69
2021/04/04 12:41:12;;;;;;;3.47;0.90;;;10.20;85.00;;;;;;5168295;28;20211;-69
2021/04/04 12:43:43;;;;;;;2.03;0.77;;;10.30;83.90;;;;;;5168286;28;20239;-70
2021/04/04 12:46:15;;;;;;;2.23;0.87;;;10.30;83.50;;;;;;5168665;28;20195;-72
2021/04/04 12:48:46;;;;;;;2.30;1.00;;;10.40;83.20;;;;;;5168535;28;20225;-73
2021/04/04 12:51:17;;;;;;;1.83;0.70;;;10.50;83.30;;;;;;5168685;28;20582;-71
2021/04/04 12:53:50;;;;;;;1.90;0.83;;;10.60;83.10;;;;;;5168615;28;20531;-74
2021/04/04 12:56:35;;;;;;;2.40;0.77;;;10.60;82.60;;;;;;5165975;28;20271;-73
2021/04/04 12:59:14;;;;;;;1.10;0.67;;;10.60;82.90;;;;;;5168131;28;20215;-70
2021/04/04 13:01:46;;;;;;;1.90;0.77;;;10.70;82.90;;;;;;5168481;28;20521;-72
2021/04/04 13:04:19;;;;;;;3.13;0.90;;;10.80;83.00;;;;;;5168371;28;20564;-72
2021/04/04 13:06:52;;;;;;;2.43;0.90;;;10.90;82.40;;;;;;5167994;28;20242;-70
2021/04/04 13:09:24;;;;;;;2.00;0.70;;;11.00;80.90;;;;;;5166571;28;20247;-70
2021/04/04 13:11:55;;;;;;;3.07;1.00;;;10.90;80.20;;;;;;5167920;28;20196;-70
2021/04/04 13:14:26;;;;;;;2.20;0.53;;;10.70;80.60;;;;;;5168050;28;20192;-70
2021/04/04 13:16:59;;;;;;;1.87;0.90;;;10.60;80.90;;;;;;5167680;28;20191;-70
2021/04/04 13:19:41;;;;;;;4.23;1.23;;;10.60;80.30;;;;;;5167699;28;20200;-71
2021/04/04 13:22:13;;;;;;;3.33;1.00;;;10.70;80.70;;;;;;5168146;28;20195;-69
2021/04/04 13:24:45;;;;;;;2.07;0.80;;;10.80;80.10;;;;;;5167796;28;20203;-69
2021/04/04 13:27:16;;;;;;;2.73;0.83;;;10.80;80.00;;;;;;5168006;28;20196;-71
2021/04/04 13:29:47;;;;;;;3.23;0.80;;;10.90;79.60;;;;;;5168074;28;20246;-71
2021/04/04 13:32:19;;;;;;;2.00;0.60;;;10.90;78.70;;;;;;5168865;28;20235;-71
2021/04/04 13:34:50;;;;;;;1.90;0.80;;;11.00;78.70;;;;;;5168704;28;20199;-70
2021/04/04 13:37:23;;;;;;;1.90;0.77;;;11.10;78.70;;;;;;5167986;28;20603;-70
2021/04/04 13:39:55;;;;;;;5.77;0.93;;;11.20;78.50;;;;;;5150285;28;20202;-70
2021/04/04 13:42:28;;;;;;;2.43;1.00;;;11.10;77.80;;;;;;5167265;28;20231;-71
2021/04/04 13:45:00;;;;;;;2.87;0.90;;;11.20;78.30;;;;;;5167535;28;20188;-71
2021/04/04 13:47:31;;;;;;;2.93;1.00;;;11.30;78.40;;;;;;5167401;28;20192;-70
2021/04/04 13:50:16;;;;;;;2.33;0.80;;;11.30;77.70;;;;;;5167123;28;20227;-70
2021/04/04 13:52:47;;;;;;;1.20;0.73;;;11.30;78.60;;;;;;5167476;28;20701;-71
2021/04/04 13:55:29;;;;;;;3.80;0.97;;;11.30;77.10;;;;;;5153243;28;20570;-71
2021/04/04 13:58:00;;;;;;;2.10;0.83;;;11.20;77.40;;;;;;5167464;28;20222;-70
2021/04/04 14:00:42;;;;;;;2.77;1.00;;;11.20;78.50;;;;;;5166937;28;20572;-70
2021/04/04 14:03:13;;;;;;;1.57;0.73;;;11.30;77.80;;;;;;5166983;28;20196;-71
2021/04/04 14:05:45;;;;;;;2.27;1.20;;;11.40;77.60;;;;;;5166473;28;20196;-72
2021/04/04 14:08:18;;;;;;;1.77;0.90;;;11.50;77.60;;;;;;5167004;28;20580;-71
2021/04/04 14:10:51;;;;;;;2.73;1.00;;;11.50;77.90;;;;;;5166954;28;20550;-70
2021/04/04 14:13:22;;;;;;;3.63;1.20;;;11.80;78.30;;;;;;5167091;28;20553;-70
2021/04/04 14:15:53;;;;;;;3.07;0.90;;;11.90;77.70;;;;;;5166561;28;20196;-69
2021/04/04 14:18:37;;;;;;;2.00;0.97;;;11.80;76.60;;;;;;5167032;28;20635;-71
2021/04/04 14:21:09;;;;;;;3.53;1.17;;;11.70;76.40;;;;;;5166499;28;20242;-69
2021/04/04 14:23:41;;;;;;;2.40;1.10;;;11.60;76.60;;;;;;5167091;28;20214;-70
2021/04/04 14:26:12;;;;;;;2.17;0.77;;;11.50;74.80;;;;;;5166397;28;20246;-72
2021/04/04 14:28:44;;;;;;;3.07;1.10;;;11.80;74.40;;;;;;5166549;28;20730;-73
2021/04/04 14:31:16;;;;;;;2.13;0.87;;;12.30;73.70;;;;;;5166798;28;20227;-70
2021/04/04 14:33:48;;;;;;;3.57;1.07;;;12.70;71.70;;;;;;5149487;28;20199;-69
2021/04/04 14:36:19;;;;;;;1.40;0.77;;;13.00;71.20;;;;;;5166511;28;20199;-72
2021/04/04 14:38:51;;;;;;;2.30;0.80;;;13.20;70.60;;;;;;5166462;28;20196;-70
2021/04/04 14:41:22;;;;;;;2.20;1.00;;;12.90;70.50;;;;;;5166144;28;20198;-70
2021/04/04 14:46:31;;;;;;;1.50;0.80;;;12.10;70.80;;;;;;5166207;28;20196;-70